sensor_id;sensor_type;location;lat;lon;timestamp;P1;durP1;ratioP1;P2;durP2;ratioP2
36355;SDS011;22384;54.302;18.596;2022-07-01T00:01:02;10.38;;;6.00;;
36355;SDS011;22384;54.302;18.596;2022-07-01T00:03:28;9.68;;;6.82;;
36355;SDS011;22384;54.302;18.596;2022-07-01T00:05:54;13.35;;;6.13;;
36355;SDS011;22384;54.302;18.596;2022-07-01T00:08:20;7.30;;;5.95;;
36355;SDS011;22384;54.302;18.596;2022-07-01T00:10:47;9.82;;;6.10;;
36355;SDS011;22384;54.302;18.596;2022-07-01T00:13:14;10.55;;;7.30;;
36355;SDS011;22384;54.302;18.596;2022-07-01T00:15:40;10.60;;;6.15;;
36355;SDS011;22384;54.302;18.596;2022-07-01T00:18:06;13.15;;;7.45;;
36355;SDS011;22384;54.302;18.596;2022-07-01T00:20:32;12.85;;;7.75;;
36355;SDS011;22384;54.302;18.596;2022-07-01T00:22:59;10.52;;;7.72;;
36355;SDS011;22384;54.302;18.596;2022-07-01T00:25:25;9.75;;;7.07;;
36355;SDS011;22384;54.302;18.596;2022-07-01T00:27:51;10.13;;;7.88;;
36355;SDS011;22384;54.302;18.596;2022-07-01T00:30:17;17.30;;;8.55;;
36355;SDS011;22384;54.302;18.596;2022-07-01T00:32:43;13.15;;;8.15;;
36355;SDS011;22384;54.302;18.596;2022-07-01T00:35:11;10.10;;;8.00;;
36355;SDS011;22384;54.302;18.596;2022-07-01T00:37:38;10.50;;;7.03;;
36355;SDS011;22384;54.302;18.596;2022-07-01T00:40:05;11.20;;;7.57;;
36355;SDS011;22384;54.302;18.596;2022-07-01T00:42:32;10.80;;;7.50;;
36355;SDS011;22384;54.302;18.596;2022-07-01T00:44:58;10.23;;;7.50;;
36355;SDS011;22384;54.302;18.596;2022-07-01T00:47:24;10.80;;;7.78;;
36355;SDS011;22384;54.302;18.596;2022-07-01T00:49:51;10.43;;;8.02;;
36355;SDS011;22384;54.302;18.596;2022-07-01T00:52:17;14.32;;;9.57;;
36355;SDS011;22384;54.302;18.596;2022-07-01T00:54:43;13.65;;;8.23;;
36355;SDS011;22384;54.302;18.596;2022-07-01T00:57:09;10.90;;;8.82;;
36355;SDS011;22384;54.302;18.596;2022-07-01T00:59:36;11.98;;;9.18;;
36355;SDS011;22384;54.302;18.596;2022-07-01T01:02:03;17.90;;;9.20;;
36355;SDS011;22384;54.302;18.596;2022-07-01T01:04:30;12.27;;;8.70;;
36355;SDS011;22384;54.302;18.596;2022-07-01T01:06:57;11.63;;;8.98;;
36355;SDS011;22384;54.302;18.596;2022-07-01T01:09:23;15.63;;;9.35;;
36355;SDS011;22384;54.302;18.596;2022-07-01T01:11:50;12.55;;;9.80;;
36355;SDS011;22384;54.302;18.596;2022-07-01T01:14:16;15.82;;;10.60;;
36355;SDS011;22384;54.302;18.596;2022-07-01T01:16:42;18.95;;;10.05;;
36355;SDS011;22384;54.302;18.596;2022-07-01T01:19:08;15.63;;;10.57;;
36355;SDS011;22384;54.302;18.596;2022-07-01T01:21:35;15.32;;;10.05;;
36355;SDS011;22384;54.302;18.596;2022-07-01T01:24:01;15.30;;;11.43;;
36355;SDS011;22384;54.302;18.596;2022-07-01T01:26:27;15.90;;;11.85;;
36355;SDS011;22384;54.302;18.596;2022-07-01T01:28:55;16.60;;;10.63;;
36355;SDS011;22384;54.302;18.596;2022-07-01T01:31:28;14.93;;;10.48;;
36355;SDS011;22384;54.302;18.596;2022-07-01T01:33:55;22.52;;;11.45;;
36355;SDS011;22384;54.302;18.596;2022-07-01T01:36:21;17.15;;;10.70;;
36355;SDS011;22384;54.302;18.596;2022-07-01T01:38:47;17.45;;;9.88;;
36355;SDS011;22384;54.302;18.596;2022-07-01T01:41:13;16.20;;;9.82;;
36355;SDS011;22384;54.302;18.596;2022-07-01T01:43:39;17.33;;;10.23;;
36355;SDS011;22384;54.302;18.596;2022-07-01T01:46:06;21.42;;;9.55;;
36355;SDS011;22384;54.302;18.596;2022-07-01T01:48:34;16.52;;;9.48;;
36355;SDS011;22384;54.302;18.596;2022-07-01T01:51:01;15.70;;;9.65;;
36355;SDS011;22384;54.302;18.596;2022-07-01T01:53:27;22.23;;;10.05;;
36355;SDS011;22384;54.302;18.596;2022-07-01T01:55:53;14.35;;;9.95;;
36355;SDS011;22384;54.302;18.596;2022-07-01T01:58:20;19.40;;;9.10;;
36355;SDS011;22384;54.302;18.596;2022-07-01T02:00:46;20.52;;;10.63;;
36355;SDS011;22384;54.302;18.596;2022-07-01T02:03:12;13.90;;;9.80;;
36355;SDS011;22384;54.302;18.596;2022-07-01T02:05:39;14.75;;;10.05;;
36355;SDS011;22384;54.302;18.596;2022-07-01T02:08:05;11.88;;;9.02;;
36355;SDS011;22384;54.302;18.596;2022-07-01T02:10:31;16.77;;;9.60;;
36355;SDS011;22384;54.302;18.596;2022-07-01T02:12:58;16.58;;;9.98;;
36355;SDS011;22384;54.302;18.596;2022-07-01T02:15:24;15.98;;;9.75;;
36355;SDS011;22384;54.302;18.596;2022-07-01T02:17:50;15.73;;;9.43;;
36355;SDS011;22384;54.302;18.596;2022-07-01T02:20:18;17.30;;;9.82;;
36355;SDS011;22384;54.302;18.596;2022-07-01T02:22:44;16.73;;;9.68;;
36355;SDS011;22384;54.302;18.596;2022-07-01T02:25:10;19.38;;;9.27;;
36355;SDS011;22384;54.302;18.596;2022-07-01T02:27:36;12.48;;;9.32;;
36355;SDS011;22384;54.302;18.596;2022-07-01T02:30:04;15.38;;;8.95;;
36355;SDS011;22384;54.302;18.596;2022-07-01T02:32:30;21.25;;;9.57;;
36355;SDS011;22384;54.302;18.596;2022-07-01T02:34:57;18.23;;;9.43;;
36355;SDS011;22384;54.302;18.596;2022-07-01T02:37:23;14.98;;;9.25;;
36355;SDS011;22384;54.302;18.596;2022-07-01T02:39:49;22.55;;;10.45;;
36355;SDS011;22384;54.302;18.596;2022-07-01T02:42:15;20.33;;;10.40;;
36355;SDS011;22384;54.302;18.596;2022-07-01T02:44:56;13.45;;;9.48;;
36355;SDS011;22384;54.302;18.596;2022-07-01T02:47:23;10.40;;;8.95;;
36355;SDS011;22384;54.302;18.596;2022-07-01T02:49:49;12.20;;;9.23;;
36355;SDS011;22384;54.302;18.596;2022-07-01T02:52:18;14.13;;;8.90;;
36355;SDS011;22384;54.302;18.596;2022-07-01T02:54:44;19.70;;;9.23;;
36355;SDS011;22384;54.302;18.596;2022-07-01T02:57:11;14.57;;;9.45;;
36355;SDS011;22384;54.302;18.596;2022-07-01T02:59:37;18.02;;;9.80;;
36355;SDS011;22384;54.302;18.596;2022-07-01T03:02:04;16.70;;;9.20;;
36355;SDS011;22384;54.302;18.596;2022-07-01T03:04:30;21.38;;;9.82;;
36355;SDS011;22384;54.302;18.596;2022-07-01T03:06:56;14.20;;;9.77;;
36355;SDS011;22384;54.302;18.596;2022-07-01T03:09:22;15.82;;;9.27;;
36355;SDS011;22384;54.302;18.596;2022-07-01T03:11:48;16.40;;;10.05;;
36355;SDS011;22384;54.302;18.596;2022-07-01T03:14:14;18.90;;;9.63;;
36355;SDS011;22384;54.302;18.596;2022-07-01T03:16:41;15.23;;;9.65;;
36355;SDS011;22384;54.302;18.596;2022-07-01T03:19:07;12.65;;;9.80;;
36355;SDS011;22384;54.302;18.596;2022-07-01T03:21:34;12.40;;;8.75;;
36355;SDS011;22384;54.302;18.596;2022-07-01T03:24:00;12.50;;;8.80;;
36355;SDS011;22384;54.302;18.596;2022-07-01T03:26:26;14.73;;;9.20;;
36355;SDS011;22384;54.302;18.596;2022-07-01T03:28:52;19.55;;;9.35;;
36355;SDS011;22384;54.302;18.596;2022-07-01T03:31:19;15.27;;;8.50;;
36355;SDS011;22384;54.302;18.596;2022-07-01T03:33:45;16.55;;;9.38;;
36355;SDS011;22384;54.302;18.596;2022-07-01T03:36:11;15.07;;;8.38;;
36355;SDS011;22384;54.302;18.596;2022-07-01T03:38:38;25.83;;;9.13;;
36355;SDS011;22384;54.302;18.596;2022-07-01T03:41:21;14.88;;;8.63;;
36355;SDS011;22384;54.302;18.596;2022-07-01T03:43:48;15.38;;;8.98;;
36355;SDS011;22384;54.302;18.596;2022-07-01T03:46:15;18.98;;;9.27;;
36355;SDS011;22384;54.302;18.596;2022-07-01T03:48:41;11.35;;;8.00;;
36355;SDS011;22384;54.302;18.596;2022-07-01T03:51:07;15.55;;;8.48;;
36355;SDS011;22384;54.302;18.596;2022-07-01T03:53:33;12.77;;;8.10;;
36355;SDS011;22384;54.302;18.596;2022-07-01T03:56:18;19.10;;;8.30;;
36355;SDS011;22384;54.302;18.596;2022-07-01T03:58:44;13.50;;;8.02;;
36355;SDS011;22384;54.302;18.596;2022-07-01T04:01:10;15.63;;;8.38;;
36355;SDS011;22384;54.302;18.596;2022-07-01T04:03:36;14.93;;;8.73;;
36355;SDS011;22384;54.302;18.596;2022-07-01T04:06:02;16.73;;;8.15;;
36355;SDS011;22384;54.302;18.596;2022-07-01T04:08:29;13.10;;;8.45;;
36355;SDS011;22384;54.302;18.596;2022-07-01T04:10:55;11.70;;;8.40;;
36355;SDS011;22384;54.302;18.596;2022-07-01T04:13:22;13.38;;;8.77;;
36355;SDS011;22384;54.302;18.596;2022-07-01T04:15:48;13.70;;;8.02;;
36355;SDS011;22384;54.302;18.596;2022-07-01T04:18:14;14.70;;;8.25;;
36355;SDS011;22384;54.302;18.596;2022-07-01T04:20:41;14.13;;;8.57;;
36355;SDS011;22384;54.302;18.596;2022-07-01T04:23:07;12.93;;;7.80;;
36355;SDS011;22384;54.302;18.596;2022-07-01T04:25:33;13.98;;;8.43;;
36355;SDS011;22384;54.302;18.596;2022-07-01T04:27:59;11.43;;;8.20;;
36355;SDS011;22384;54.302;18.596;2022-07-01T04:30:28;10.30;;;7.93;;
36355;SDS011;22384;54.302;18.596;2022-07-01T04:32:54;20.17;;;7.35;;
36355;SDS011;22384;54.302;18.596;2022-07-01T04:35:20;19.98;;;8.40;;
36355;SDS011;22384;54.302;18.596;2022-07-01T04:37:46;14.65;;;7.43;;
36355;SDS011;22384;54.302;18.596;2022-07-01T04:40:12;13.32;;;7.68;;
36355;SDS011;22384;54.302;18.596;2022-07-01T04:42:38;14.75;;;7.47;;
36355;SDS011;22384;54.302;18.596;2022-07-01T04:45:04;17.33;;;7.25;;
36355;SDS011;22384;54.302;18.596;2022-07-01T04:47:31;11.23;;;6.97;;
36355;SDS011;22384;54.302;18.596;2022-07-01T04:49:57;13.18;;;6.72;;
36355;SDS011;22384;54.302;18.596;2022-07-01T04:52:24;8.73;;;6.00;;
36355;SDS011;22384;54.302;18.596;2022-07-01T04:54:50;16.05;;;6.00;;
36355;SDS011;22384;54.302;18.596;2022-07-01T04:57:17;10.05;;;6.38;;
36355;SDS011;22384;54.302;18.596;2022-07-01T04:59:43;10.35;;;6.53;;
36355;SDS011;22384;54.302;18.596;2022-07-01T05:02:09;11.13;;;6.50;;
36355;SDS011;22384;54.302;18.596;2022-07-01T05:04:36;13.05;;;7.03;;
36355;SDS011;22384;54.302;18.596;2022-07-01T05:07:05;10.32;;;6.22;;
36355;SDS011;22384;54.302;18.596;2022-07-01T05:09:31;21.35;;;6.50;;
36355;SDS011;22384;54.302;18.596;2022-07-01T05:11:58;19.00;;;6.85;;
36355;SDS011;22384;54.302;18.596;2022-07-01T05:14:24;9.65;;;6.00;;
36355;SDS011;22384;54.302;18.596;2022-07-01T05:16:50;20.17;;;7.25;;
36355;SDS011;22384;54.302;18.596;2022-07-01T05:19:16;13.25;;;6.43;;
36355;SDS011;22384;54.302;18.596;2022-07-01T05:22:01;13.55;;;5.97;;
36355;SDS011;22384;54.302;18.596;2022-07-01T05:24:29;9.80;;;5.60;;
36355;SDS011;22384;54.302;18.596;2022-07-01T05:26:55;15.05;;;6.60;;
36355;SDS011;22384;54.302;18.596;2022-07-01T05:29:22;12.98;;;6.25;;
36355;SDS011;22384;54.302;18.596;2022-07-01T05:31:48;16.13;;;5.70;;
36355;SDS011;22384;54.302;18.596;2022-07-01T05:34:14;11.93;;;5.32;;
36355;SDS011;22384;54.302;18.596;2022-07-01T05:36:40;13.88;;;6.30;;
36355;SDS011;22384;54.302;18.596;2022-07-01T05:39:07;10.82;;;5.28;;
36355;SDS011;22384;54.302;18.596;2022-07-01T05:41:33;11.95;;;5.97;;
36355;SDS011;22384;54.302;18.596;2022-07-01T05:43:59;6.95;;;5.00;;
36355;SDS011;22384;54.302;18.596;2022-07-01T05:46:26;10.30;;;5.43;;
36355;SDS011;22384;54.302;18.596;2022-07-01T05:48:52;11.07;;;5.38;;
36355;SDS011;22384;54.302;18.596;2022-07-01T05:51:18;13.45;;;7.63;;
36355;SDS011;22384;54.302;18.596;2022-07-01T05:53:45;15.48;;;7.50;;
36355;SDS011;22384;54.302;18.596;2022-07-01T05:56:12;13.27;;;8.02;;
36355;SDS011;22384;54.302;18.596;2022-07-01T05:58:39;12.82;;;7.97;;
36355;SDS011;22384;54.302;18.596;2022-07-01T06:01:05;11.75;;;8.25;;
36355;SDS011;22384;54.302;18.596;2022-07-01T06:03:31;21.23;;;9.85;;
36355;SDS011;22384;54.302;18.596;2022-07-01T06:05:57;15.30;;;8.70;;
36355;SDS011;22384;54.302;18.596;2022-07-01T06:08:24;12.63;;;8.55;;
36355;SDS011;22384;54.302;18.596;2022-07-01T06:10:50;13.35;;;9.05;;
36355;SDS011;22384;54.302;18.596;2022-07-01T06:13:16;20.10;;;8.25;;
36355;SDS011;22384;54.302;18.596;2022-07-01T06:15:42;15.10;;;8.68;;
36355;SDS011;22384;54.302;18.596;2022-07-01T06:18:08;16.23;;;8.00;;
36355;SDS011;22384;54.302;18.596;2022-07-01T06:20:35;17.58;;;8.02;;
36355;SDS011;22384;54.302;18.596;2022-07-01T06:23:01;18.30;;;7.82;;
36355;SDS011;22384;54.302;18.596;2022-07-01T06:25:27;14.43;;;8.45;;
36355;SDS011;22384;54.302;18.596;2022-07-01T06:27:54;16.90;;;8.05;;
36355;SDS011;22384;54.302;18.596;2022-07-01T06:30:20;13.90;;;7.63;;
36355;SDS011;22384;54.302;18.596;2022-07-01T06:32:46;16.77;;;7.68;;
36355;SDS011;22384;54.302;18.596;2022-07-01T06:35:12;16.80;;;7.32;;
36355;SDS011;22384;54.302;18.596;2022-07-01T06:37:38;16.45;;;7.22;;
36355;SDS011;22384;54.302;18.596;2022-07-01T06:40:06;13.63;;;6.45;;
36355;SDS011;22384;54.302;18.596;2022-07-01T06:42:32;16.90;;;6.65;;
36355;SDS011;22384;54.302;18.596;2022-07-01T06:44:59;15.13;;;7.38;;
36355;SDS011;22384;54.302;18.596;2022-07-01T06:47:25;13.38;;;6.50;;
36355;SDS011;22384;54.302;18.596;2022-07-01T06:49:51;13.85;;;7.15;;
36355;SDS011;22384;54.302;18.596;2022-07-01T06:52:18;15.85;;;6.43;;
36355;SDS011;22384;54.302;18.596;2022-07-01T06:54:44;13.82;;;5.78;;
36355;SDS011;22384;54.302;18.596;2022-07-01T06:57:10;15.60;;;5.70;;
36355;SDS011;22384;54.302;18.596;2022-07-01T06:59:36;13.25;;;6.28;;
36355;SDS011;22384;54.302;18.596;2022-07-01T07:02:03;9.32;;;6.47;;
36355;SDS011;22384;54.302;18.596;2022-07-01T07:04:32;18.03;;;6.50;;
36355;SDS011;22384;54.302;18.596;2022-07-01T07:06:59;16.08;;;5.35;;
36355;SDS011;22384;54.302;18.596;2022-07-01T07:09:25;14.25;;;5.97;;
36355;SDS011;22384;54.302;18.596;2022-07-01T07:11:51;11.00;;;4.55;;
36355;SDS011;22384;54.302;18.596;2022-07-01T07:14:18;8.20;;;4.63;;
36355;SDS011;22384;54.302;18.596;2022-07-01T07:16:44;9.35;;;4.78;;
36355;SDS011;22384;54.302;18.596;2022-07-01T07:19:10;8.70;;;5.53;;
36355;SDS011;22384;54.302;18.596;2022-07-01T07:21:37;11.07;;;5.00;;
36355;SDS011;22384;54.302;18.596;2022-07-01T07:24:03;10.45;;;5.20;;
36355;SDS011;22384;54.302;18.596;2022-07-01T07:26:31;18.70;;;4.95;;
36355;SDS011;22384;54.302;18.596;2022-07-01T07:28:57;8.85;;;4.90;;
36355;SDS011;22384;54.302;18.596;2022-07-01T07:31:23;7.18;;;4.78;;
36355;SDS011;22384;54.302;18.596;2022-07-01T07:33:53;10.25;;;4.55;;
36355;SDS011;22384;54.302;18.596;2022-07-01T07:36:30;8.63;;;4.80;;
36355;SDS011;22384;54.302;18.596;2022-07-01T07:39:04;11.75;;;4.60;;
36355;SDS011;22384;54.302;18.596;2022-07-01T07:41:36;6.35;;;4.60;;
36355;SDS011;22384;54.302;18.596;2022-07-01T07:44:08;9.88;;;4.78;;
36355;SDS011;22384;54.302;18.596;2022-07-01T07:46:44;9.93;;;4.28;;
36355;SDS011;22384;54.302;18.596;2022-07-01T07:49:10;11.52;;;4.35;;
36355;SDS011;22384;54.302;18.596;2022-07-01T07:51:39;7.93;;;4.38;;
36355;SDS011;22384;54.302;18.596;2022-07-01T07:57:05;12.82;;;4.68;;
36355;SDS011;22384;54.302;18.596;2022-07-01T08:02:43;6.15;;;4.70;;
36355;SDS011;22384;54.302;18.596;2022-07-01T08:05:12;8.15;;;4.57;;
36355;SDS011;22384;54.302;18.596;2022-07-01T08:07:44;9.77;;;4.57;;
36355;SDS011;22384;54.302;18.596;2022-07-01T08:10:12;9.68;;;4.47;;
36355;SDS011;22384;54.302;18.596;2022-07-01T08:12:48;8.57;;;4.93;;
36355;SDS011;22384;54.302;18.596;2022-07-01T08:15:22;8.73;;;5.00;;
36355;SDS011;22384;54.302;18.596;2022-07-01T08:17:49;11.13;;;4.63;;
36355;SDS011;22384;54.302;18.596;2022-07-01T08:20:15;7.75;;;4.55;;
36355;SDS011;22384;54.302;18.596;2022-07-01T08:22:43;9.50;;;5.05;;
36355;SDS011;22384;54.302;18.596;2022-07-01T08:25:09;9.85;;;4.63;;
36355;SDS011;22384;54.302;18.596;2022-07-01T08:27:35;10.40;;;5.22;;
36355;SDS011;22384;54.302;18.596;2022-07-01T08:30:02;9.85;;;5.63;;
36355;SDS011;22384;54.302;18.596;2022-07-01T08:32:28;11.27;;;5.40;;
36355;SDS011;22384;54.302;18.596;2022-07-01T08:34:57;7.15;;;5.10;;
36355;SDS011;22384;54.302;18.596;2022-07-01T08:37:23;8.68;;;4.43;;
36355;SDS011;22384;54.302;18.596;2022-07-01T08:39:57;12.75;;;4.88;;
36355;SDS011;22384;54.302;18.596;2022-07-01T08:42:33;11.40;;;4.80;;
36355;SDS011;22384;54.302;18.596;2022-07-01T08:45:12;10.23;;;5.18;;
36355;SDS011;22384;54.302;18.596;2022-07-01T08:47:49;9.32;;;5.13;;
36355;SDS011;22384;54.302;18.596;2022-07-01T08:50:20;8.40;;;5.18;;
36355;SDS011;22384;54.302;18.596;2022-07-01T08:58:38;11.18;;;5.70;;
36355;SDS011;22384;54.302;18.596;2022-07-01T09:01:27;11.60;;;6.60;;
36355;SDS011;22384;54.302;18.596;2022-07-01T09:04:12;10.52;;;5.80;;
36355;SDS011;22384;54.302;18.596;2022-07-01T09:06:57;8.75;;;4.75;;
36355;SDS011;22384;54.302;18.596;2022-07-01T09:09:28;8.20;;;5.20;;
36355;SDS011;22384;54.302;18.596;2022-07-01T09:17:19;8.10;;;4.95;;
36355;SDS011;22384;54.302;18.596;2022-07-01T09:19:52;11.45;;;5.22;;
36355;SDS011;22384;54.302;18.596;2022-07-01T09:22:39;14.13;;;5.28;;
36355;SDS011;22384;54.302;18.596;2022-07-01T09:25:40;7.20;;;5.72;;
36355;SDS011;22384;54.302;18.596;2022-07-01T09:28:23;8.00;;;5.60;;
36355;SDS011;22384;54.302;18.596;2022-07-01T09:30:50;13.63;;;5.70;;
36355;SDS011;22384;54.302;18.596;2022-07-01T09:33:23;12.90;;;5.85;;
36355;SDS011;22384;54.302;18.596;2022-07-01T09:35:50;17.00;;;5.65;;
36355;SDS011;22384;54.302;18.596;2022-07-01T09:38:20;12.55;;;5.78;;
36355;SDS011;22384;54.302;18.596;2022-07-01T09:48:27;7.95;;;5.32;;
36355;SDS011;22384;54.302;18.596;2022-07-01T09:51:07;9.30;;;5.13;;
36355;SDS011;22384;54.302;18.596;2022-07-01T09:53:54;9.43;;;5.30;;
36355;SDS011;22384;54.302;18.596;2022-07-01T09:56:32;17.85;;;6.07;;
36355;SDS011;22384;54.302;18.596;2022-07-01T09:59:00;12.68;;;5.88;;
36355;SDS011;22384;54.302;18.596;2022-07-01T10:01:29;10.02;;;5.68;;
36355;SDS011;22384;54.302;18.596;2022-07-01T10:03:58;11.93;;;6.30;;
36355;SDS011;22384;54.302;18.596;2022-07-01T10:14:11;16.83;;;6.13;;
36355;SDS011;22384;54.302;18.596;2022-07-01T10:16:42;12.13;;;6.90;;
36355;SDS011;22384;54.302;18.596;2022-07-01T10:21:48;13.25;;;6.80;;
36355;SDS011;22384;54.302;18.596;2022-07-01T10:24:18;14.00;;;7.38;;
36355;SDS011;22384;54.302;18.596;2022-07-01T10:26:46;12.13;;;8.07;;
36355;SDS011;22384;54.302;18.596;2022-07-01T10:29:31;15.60;;;8.15;;
36355;SDS011;22384;54.302;18.596;2022-07-01T10:32:07;11.95;;;8.93;;
36355;SDS011;22384;54.302;18.596;2022-07-01T10:34:42;15.18;;;8.55;;
36355;SDS011;22384;54.302;18.596;2022-07-01T10:37:09;14.52;;;9.43;;
36355;SDS011;22384;54.302;18.596;2022-07-01T10:42:28;19.60;;;9.20;;
36355;SDS011;22384;54.302;18.596;2022-07-01T10:45:02;14.23;;;8.02;;
36355;SDS011;22384;54.302;18.596;2022-07-01T10:47:29;13.52;;;8.93;;
36355;SDS011;22384;54.302;18.596;2022-07-01T10:49:56;16.73;;;9.10;;
36355;SDS011;22384;54.302;18.596;2022-07-01T10:52:22;16.92;;;9.63;;
36355;SDS011;22384;54.302;18.596;2022-07-01T10:54:53;15.10;;;9.13;;
36355;SDS011;22384;54.302;18.596;2022-07-01T10:59:51;13.00;;;8.43;;
36355;SDS011;22384;54.302;18.596;2022-07-01T11:02:22;14.38;;;6.78;;
36355;SDS011;22384;54.302;18.596;2022-07-01T11:04:57;10.82;;;6.00;;
36355;SDS011;22384;54.302;18.596;2022-07-01T11:07:26;8.80;;;6.00;;
36355;SDS011;22384;54.302;18.596;2022-07-01T11:09:53;9.20;;;5.30;;
36355;SDS011;22384;54.302;18.596;2022-07-01T11:12:26;13.07;;;5.35;;
36355;SDS011;22384;54.302;18.596;2022-07-01T11:14:54;8.25;;;4.63;;
36355;SDS011;22384;54.302;18.596;2022-07-01T11:17:20;10.43;;;4.72;;
36355;SDS011;22384;54.302;18.596;2022-07-01T11:19:50;16.10;;;5.50;;
36355;SDS011;22384;54.302;18.596;2022-07-01T11:22:22;8.35;;;4.50;;
36355;SDS011;22384;54.302;18.596;2022-07-01T11:24:58;7.97;;;4.60;;
36355;SDS011;22384;54.302;18.596;2022-07-01T11:27:25;8.77;;;4.85;;
36355;SDS011;22384;54.302;18.596;2022-07-01T11:29:52;8.65;;;4.13;;
36355;SDS011;22384;54.302;18.596;2022-07-01T11:34:53;13.63;;;5.70;;
36355;SDS011;22384;54.302;18.596;2022-07-01T11:37:24;6.72;;;4.65;;
36355;SDS011;22384;54.302;18.596;2022-07-01T11:40:12;6.90;;;4.57;;
36355;SDS011;22384;54.302;18.596;2022-07-01T11:42:39;9.32;;;4.40;;
36355;SDS011;22384;54.302;18.596;2022-07-01T11:45:08;10.25;;;5.00;;
36355;SDS011;22384;54.302;18.596;2022-07-01T11:47:48;12.77;;;4.43;;
36355;SDS011;22384;54.302;18.596;2022-07-01T11:50:23;6.65;;;4.70;;
36355;SDS011;22384;54.302;18.596;2022-07-01T11:52:52;8.02;;;4.32;;
36355;SDS011;22384;54.302;18.596;2022-07-01T11:55:20;11.70;;;4.47;;
36355;SDS011;22384;54.302;18.596;2022-07-01T11:57:49;7.05;;;4.07;;
36355;SDS011;22384;54.302;18.596;2022-07-01T12:00:16;5.68;;;3.58;;
36355;SDS011;22384;54.302;18.596;2022-07-01T12:02:48;9.63;;;4.30;;
36355;SDS011;22384;54.302;18.596;2022-07-01T12:05:16;11.10;;;5.18;;
36355;SDS011;22384;54.302;18.596;2022-07-01T12:07:44;7.18;;;4.28;;
36355;SDS011;22384;54.302;18.596;2022-07-01T12:10:16;9.50;;;4.15;;
36355;SDS011;22384;54.302;18.596;2022-07-01T12:12:45;8.15;;;4.35;;
36355;SDS011;22384;54.302;18.596;2022-07-01T12:15:14;10.70;;;4.93;;
36355;SDS011;22384;54.302;18.596;2022-07-01T12:17:43;8.20;;;4.15;;
36355;SDS011;22384;54.302;18.596;2022-07-01T12:20:12;7.93;;;4.38;;
36355;SDS011;22384;54.302;18.596;2022-07-01T12:22:40;8.00;;;4.60;;
36355;SDS011;22384;54.302;18.596;2022-07-01T12:25:08;7.97;;;4.63;;
36355;SDS011;22384;54.302;18.596;2022-07-01T12:27:34;11.32;;;4.57;;
36355;SDS011;22384;54.302;18.596;2022-07-01T12:30:04;5.23;;;3.97;;
36355;SDS011;22384;54.302;18.596;2022-07-01T12:32:36;6.78;;;4.00;;
36355;SDS011;22384;54.302;18.596;2022-07-01T12:35:04;5.05;;;3.83;;
36355;SDS011;22384;54.302;18.596;2022-07-01T12:37:36;9.15;;;4.25;;
36355;SDS011;22384;54.302;18.596;2022-07-01T12:40:06;12.18;;;4.63;;
36355;SDS011;22384;54.302;18.596;2022-07-01T12:42:36;10.38;;;4.72;;
36355;SDS011;22384;54.302;18.596;2022-07-01T12:45:11;6.72;;;4.18;;
36355;SDS011;22384;54.302;18.596;2022-07-01T12:47:42;6.05;;;4.38;;
36355;SDS011;22384;54.302;18.596;2022-07-01T12:53:04;7.80;;;4.67;;
36355;SDS011;22384;54.302;18.596;2022-07-01T12:55:33;9.50;;;4.20;;
36355;SDS011;22384;54.302;18.596;2022-07-01T12:58:10;10.38;;;4.05;;
36355;SDS011;22384;54.302;18.596;2022-07-01T13:00:37;6.45;;;4.20;;
36355;SDS011;22384;54.302;18.596;2022-07-01T13:03:18;6.43;;;4.40;;
36355;SDS011;22384;54.302;18.596;2022-07-01T13:05:47;8.13;;;4.57;;
36355;SDS011;22384;54.302;18.596;2022-07-01T13:08:16;8.45;;;4.25;;
36355;SDS011;22384;54.302;18.596;2022-07-01T13:10:46;12.10;;;4.57;;
36355;SDS011;22384;54.302;18.596;2022-07-01T13:13:12;7.03;;;4.80;;
36355;SDS011;22384;54.302;18.596;2022-07-01T13:15:52;6.45;;;4.32;;
36355;SDS011;22384;54.302;18.596;2022-07-01T13:18:20;6.93;;;4.25;;
36355;SDS011;22384;54.302;18.596;2022-07-01T13:20:46;6.05;;;4.38;;
36355;SDS011;22384;54.302;18.596;2022-07-01T13:23:13;5.60;;;3.80;;
36355;SDS011;22384;54.302;18.596;2022-07-01T13:25:40;10.05;;;3.67;;
36355;SDS011;22384;54.302;18.596;2022-07-01T13:28:06;6.50;;;3.72;;
36355;SDS011;22384;54.302;18.596;2022-07-01T13:30:32;19.45;;;4.93;;
36355;SDS011;22384;54.302;18.596;2022-07-01T13:33:00;6.88;;;3.10;;
36355;SDS011;22384;54.302;18.596;2022-07-01T13:35:27;7.90;;;3.70;;
36355;SDS011;22384;54.302;18.596;2022-07-01T13:37:53;10.10;;;4.00;;
36355;SDS011;22384;54.302;18.596;2022-07-01T13:40:19;7.20;;;3.60;;
36355;SDS011;22384;54.302;18.596;2022-07-01T13:42:47;15.25;;;4.30;;
36355;SDS011;22384;54.302;18.596;2022-07-01T13:45:14;11.68;;;3.50;;
36355;SDS011;22384;54.302;18.596;2022-07-01T13:47:40;16.63;;;4.22;;
36355;SDS011;22384;54.302;18.596;2022-07-01T13:50:07;9.38;;;4.07;;
36355;SDS011;22384;54.302;18.596;2022-07-01T13:52:33;9.52;;;3.05;;
36355;SDS011;22384;54.302;18.596;2022-07-01T13:55:00;4.15;;;2.85;;
36355;SDS011;22384;54.302;18.596;2022-07-01T13:57:26;8.52;;;3.08;;
36355;SDS011;22384;54.302;18.596;2022-07-01T13:59:52;3.72;;;2.58;;
36355;SDS011;22384;54.302;18.596;2022-07-01T14:02:18;8.40;;;2.60;;
36355;SDS011;22384;54.302;18.596;2022-07-01T14:04:45;5.60;;;2.33;;
36355;SDS011;22384;54.302;18.596;2022-07-01T14:07:14;9.55;;;3.60;;
36355;SDS011;22384;54.302;18.596;2022-07-01T14:09:58;5.15;;;2.90;;
36355;SDS011;22384;54.302;18.596;2022-07-01T14:12:27;7.35;;;2.28;;
36355;SDS011;22384;54.302;18.596;2022-07-01T14:15:02;11.80;;;2.22;;
36355;SDS011;22384;54.302;18.596;2022-07-01T14:17:49;9.18;;;2.47;;
36355;SDS011;22384;54.302;18.596;2022-07-01T14:20:17;7.00;;;3.13;;
36355;SDS011;22384;54.302;18.596;2022-07-01T14:22:44;18.00;;;5.60;;
36355;SDS011;22384;54.302;18.596;2022-07-01T14:25:10;6.80;;;2.78;;
36355;SDS011;22384;54.302;18.596;2022-07-01T14:27:36;3.78;;;2.10;;
36355;SDS011;22384;54.302;18.596;2022-07-01T14:30:03;4.13;;;2.03;;
36355;SDS011;22384;54.302;18.596;2022-07-01T14:32:31;2.88;;;1.90;;
36355;SDS011;22384;54.302;18.596;2022-07-01T14:34:57;7.75;;;2.63;;
36355;SDS011;22384;54.302;18.596;2022-07-01T14:37:32;4.05;;;2.28;;
36355;SDS011;22384;54.302;18.596;2022-07-01T14:40:07;5.40;;;2.70;;
36355;SDS011;22384;54.302;18.596;2022-07-01T14:42:37;4.18;;;2.03;;
36355;SDS011;22384;54.302;18.596;2022-07-01T14:45:08;4.13;;;2.13;;
36355;SDS011;22384;54.302;18.596;2022-07-01T14:47:44;3.40;;;1.88;;
36355;SDS011;22384;54.302;18.596;2022-07-01T14:50:11;2.95;;;1.80;;
36355;SDS011;22384;54.302;18.596;2022-07-01T14:52:43;6.30;;;3.05;;
36355;SDS011;22384;54.302;18.596;2022-07-01T14:55:09;8.20;;;7.10;;
36355;SDS011;22384;54.302;18.596;2022-07-01T14:58:03;6.28;;;2.65;;
36355;SDS011;22384;54.302;18.596;2022-07-01T15:00:29;6.70;;;2.90;;
36355;SDS011;22384;54.302;18.596;2022-07-01T15:02:56;6.78;;;2.85;;
36355;SDS011;22384;54.302;18.596;2022-07-01T15:05:22;8.45;;;3.17;;
36355;SDS011;22384;54.302;18.596;2022-07-01T15:07:49;5.13;;;2.90;;
36355;SDS011;22384;54.302;18.596;2022-07-01T15:10:15;5.05;;;3.13;;
36355;SDS011;22384;54.302;18.596;2022-07-01T15:12:41;5.55;;;3.47;;
36355;SDS011;22384;54.302;18.596;2022-07-01T15:15:08;7.22;;;3.60;;
36355;SDS011;22384;54.302;18.596;2022-07-01T15:17:40;5.55;;;3.97;;
36355;SDS011;22384;54.302;18.596;2022-07-01T15:20:06;9.65;;;5.03;;